Terminal Aerodrome Forecast
Issued by NWS

Current Version | Previous Version | Graphics & Text | Print | Product List | Glossary On
Versions: 1 2 3 4 5 6 7 8 9 10 11 12 13 14 15 16
000
FTUS41 KILN 011100
TAFLUK
TAF
KLUK 011134Z 0112/0212 34007KT P6SM FEW050
     FM012300 34005KT P6SM SCT050
     FM020200 VRB03KT P6SM FEW040=

USA.gov is the U.S. government's official web portal to all federal, state and local government web resources and services.